Time;durP1;ratioP1;P1;durP2;ratioP2;P2;SDS_P1;SDS_P2;PMS_P1;PMS_P2;Temp;Humidity;BMP_temperature;BMP_pressure;BME280_temperature;BME280_humidity;BME280_pressure;Samples;Min_cycle;Max_cycle;Signal;HPM_P1;HPM_P2
2023/12/31 00:01:55;;;;;;;12.27;7.00;;;8.50;99.90;;;;;;5054954;28;20235;-83
2023/12/31 00:04:24;;;;;;;7.50;3.50;;;8.50;99.90;;;;;;5054568;28;20192;-82
2023/12/31 00:06:54;;;;;;;9.82;4.18;;;8.50;99.90;;;;;;5055947;28;20197;-83
2023/12/31 00:09:24;;;;;;;5.55;4.00;;;8.50;99.90;;;;;;5056611;28;20189;-83
2023/12/31 00:11:51;;;;;;;6.53;3.05;;;8.50;99.90;;;;;;5055503;28;20208;-82
2023/12/31 00:14:18;;;;;;;7.35;3.65;;;8.50;99.90;;;;;;5055190;28;20205;-83
2023/12/31 00:16:49;;;;;;;9.50;3.70;;;8.60;99.90;;;;;;5055293;28;20606;-83
2023/12/31 00:19:21;;;;;;;6.53;3.38;;;8.50;99.90;;;;;;5046573;28;20196;-82
2023/12/31 00:21:53;;;;;;;5.22;2.70;;;8.40;99.90;;;;;;5045713;28;20299;-83
2023/12/31 00:24:24;;;;;;;6.88;3.90;;;8.50;99.90;;;;;;5045943;28;20280;-84
2023/12/31 00:26:51;;;;;;;7.43;3.58;;;8.50;99.90;;;;;;5051018;28;20231;-83
2023/12/31 00:29:18;;;;;;;5.13;3.00;;;8.50;99.90;;;;;;5046834;28;20213;-83
2023/12/31 00:31:45;;;;;;;7.18;5.18;;;8.50;99.90;;;;;;5043417;28;20240;-83
2023/12/31 00:34:15;;;;;;;3.83;2.50;;;8.50;99.90;;;;;;5048065;28;20260;-82
2023/12/31 00:36:48;;;;;;;9.00;3.35;;;8.50;99.90;;;;;;5049607;28;20243;-83
2023/12/31 00:39:19;;;;;;;11.93;4.95;;;8.60;99.90;;;;;;5052269;28;20201;-83
2023/12/31 00:41:47;;;;;;;5.78;2.97;;;8.60;99.90;;;;;;5045996;28;20651;-83
2023/12/31 00:44:24;;;;;;;7.15;3.45;;;8.50;99.90;;;;;;5047218;28;20208;-83
2023/12/31 00:46:59;;;;;;;6.32;3.70;;;8.60;99.90;;;;;;5046694;28;20250;-83
2023/12/31 00:49:28;;;;;;;4.90;2.97;;;8.70;99.90;;;;;;5048339;28;20571;-85
2023/12/31 00:51:56;;;;;;;3.83;2.58;;;8.60;99.90;;;;;;5046231;28;20236;-84
2023/12/31 00:54:30;;;;;;;5.22;2.60;;;8.60;99.90;;;;;;5052228;28;20211;-82
2023/12/31 00:57:05;;;;;;;7.25;3.22;;;8.60;99.90;;;;;;5043864;28;20221;-83
2023/12/31 00:59:35;;;;;;;4.80;2.78;;;8.60;99.90;;;;;;5046524;28;20207;-84
2023/12/31 01:02:03;;;;;;;4.80;2.00;;;8.60;99.90;;;;;;5052742;28;20212;-83
2023/12/31 01:04:34;;;;;;;9.93;3.08;;;8.50;99.90;;;;;;5052331;28;20200;-84
2023/12/31 01:07:08;;;;;;;8.40;3.20;;;8.30;99.90;;;;;;5052867;28;20197;-83
2023/12/31 01:09:40;;;;;;;7.28;3.10;;;8.50;99.90;;;;;;5051092;28;20205;-83
2023/12/31 01:12:12;;;;;;;5.93;2.78;;;8.50;99.90;;;;;;5050623;28;20258;-83
2023/12/31 01:14:42;;;;;;;5.75;2.58;;;8.50;99.90;;;;;;5052578;28;20236;-84
2023/12/31 01:17:09;;;;;;;7.95;2.88;;;8.50;99.90;;;;;;5054749;28;20220;-83
2023/12/31 01:19:45;;;;;;;12.75;3.13;;;8.40;99.90;;;;;;5051385;28;20283;-83
2023/12/31 01:22:13;;;;;;;7.65;3.05;;;8.40;99.90;;;;;;5061364;28;20220;-84
2023/12/31 01:24:44;;;;;;;5.63;3.63;;;8.50;99.90;;;;;;5044116;28;20211;-82
2023/12/31 01:27:14;;;;;;;5.15;2.75;;;8.60;99.90;;;;;;5052441;28;20232;-83
2023/12/31 01:29:41;;;;;;;7.35;2.10;;;8.60;99.90;;;;;;5045689;28;20201;-83
2023/12/31 01:32:10;;;;;;;3.15;2.22;;;8.70;99.90;;;;;;5050610;28;20243;-82
2023/12/31 01:34:45;;;;;;;3.85;2.42;;;8.70;99.90;;;;;;5049787;28;20208;-83
2023/12/31 01:37:15;;;;;;;6.47;2.15;;;8.70;99.90;;;;;;5040322;28;20221;-83
2023/12/31 01:39:44;;;;;;;5.28;2.58;;;8.70;99.90;;;;;;5040225;28;20680;-84
2023/12/31 01:42:15;;;;;;;5.18;2.88;;;8.80;99.90;;;;;;5049982;28;20224;-83
2023/12/31 01:44:50;;;;;;;4.05;2.55;;;8.90;99.90;;;;;;5038756;28;20200;-84
2023/12/31 01:47:21;;;;;;;3.90;2.50;;;8.90;99.90;;;;;;5056720;28;20192;-83
2023/12/31 01:49:56;;;;;;;6.10;2.88;;;8.90;99.90;;;;;;5056474;28;20201;-82
2023/12/31 01:52:29;;;;;;;7.88;2.40;;;8.90;99.90;;;;;;5052615;28;20263;-82
2023/12/31 01:55:03;;;;;;;5.10;1.80;;;8.80;99.90;;;;;;5050110;28;20640;-83
2023/12/31 01:57:35;;;;;;;3.28;2.40;;;8.90;99.90;;;;;;5047908;28;20216;-84
2023/12/31 02:00:07;;;;;;;3.72;1.92;;;8.90;99.90;;;;;;5048757;28;20204;-83
2023/12/31 02:02:36;;;;;;;5.57;2.70;;;8.90;99.90;;;;;;5054280;28;20477;-84
2023/12/31 02:05:07;;;;;;;4.88;2.05;;;8.90;99.90;;;;;;5060534;28;20234;-84
2023/12/31 02:07:35;;;;;;;5.13;2.90;;;8.90;99.90;;;;;;5051797;28;20188;-83
2023/12/31 02:10:05;;;;;;;3.90;2.60;;;8.90;99.90;;;;;;5057955;28;20181;-82
2023/12/31 02:12:32;;;;;;;3.55;2.13;;;9.00;99.90;;;;;;5061847;28;20266;-83
2023/12/31 02:15:00;;;;;;;2.25;1.52;;;8.80;99.90;;;;;;5055188;28;20204;-82
2023/12/31 02:17:27;;;;;;;4.93;2.28;;;9.00;99.90;;;;;;5054750;28;20240;-83
2023/12/31 02:19:54;;;;;;;4.00;2.50;;;9.00;99.90;;;;;;5049232;28;20197;-82
2023/12/31 02:22:25;;;;;;;3.22;1.73;;;9.00;99.90;;;;;;5051611;28;20235;-83
2023/12/31 02:24:56;;;;;;;4.25;1.75;;;8.90;99.90;;;;;;5055149;28;20248;-83
2023/12/31 02:27:31;;;;;;;2.70;1.60;;;8.90;99.90;;;;;;5056566;28;20193;-83
2023/12/31 02:30:19;;;;;;;3.08;1.90;;;8.90;99.90;;;;;;5046296;28;20200;-81
2023/12/31 02:32:47;;;;;;;5.90;2.38;;;8.80;99.90;;;;;;5066363;28;20259;-83
2023/12/31 02:35:19;;;;;;;4.22;2.25;;;8.90;99.90;;;;;;5040284;28;20219;-84
2023/12/31 02:37:47;;;;;;;4.82;2.38;;;8.90;99.90;;;;;;5058021;28;20204;-82
2023/12/31 02:40:20;;;;;;;5.38;2.60;;;8.90;99.90;;;;;;5055908;28;20204;-83
2023/12/31 02:42:49;;;;;;;4.50;2.28;;;8.80;99.90;;;;;;5061631;28;20192;-81
2023/12/31 02:45:21;;;;;;;4.53;1.60;;;8.80;99.90;;;;;;5055699;28;20220;-83
2023/12/31 02:47:53;;;;;;;3.45;2.17;;;8.80;99.90;;;;;;5049666;28;20220;-81
2023/12/31 02:50:25;;;;;;;5.70;2.10;;;8.70;99.90;;;;;;5051948;28;20200;-82
2023/12/31 02:52:54;;;;;;;6.55;4.60;;;8.60;99.90;;;;;;5046952;28;20204;-83
2023/12/31 02:55:25;;;;;;;6.35;2.63;;;8.50;99.90;;;;;;5051428;28;20201;-81
2023/12/31 02:57:57;;;;;;;3.78;2.08;;;8.40;99.90;;;;;;5043732;28;20284;-83
2023/12/31 03:00:28;;;;;;;6.85;2.38;;;8.40;99.90;;;;;;5039033;28;20201;-82
2023/12/31 03:02:59;;;;;;;6.05;2.10;;;8.30;99.90;;;;;;5052883;28;20216;-83
2023/12/31 03:05:30;;;;;;;3.88;2.50;;;8.30;99.90;;;;;;5060234;28;20200;-83
2023/12/31 03:08:00;;;;;;;5.25;2.30;;;8.20;99.90;;;;;;5057666;28;20219;-82
2023/12/31 03:10:28;;;;;;;1.83;1.63;;;8.20;99.90;;;;;;5056378;28;20193;-83
2023/12/31 03:12:58;;;;;;;3.05;2.08;;;8.20;99.90;;;;;;5067728;28;20223;-83
2023/12/31 03:15:39;;;;;;;3.17;1.70;;;8.20;99.90;;;;;;5092242;27;20719;-71
2023/12/31 03:18:06;;;;;;;14.45;2.72;;;8.20;99.90;;;;;;5075242;28;20677;-72
2023/12/31 03:20:33;;;;;;;4.82;2.35;;;8.20;99.90;;;;;;5065177;28;20249;-71
2023/12/31 03:23:00;;;;;;;2.25;1.67;;;8.20;99.90;;;;;;5070965;28;20253;-72
2023/12/31 03:25:27;;;;;;;2.80;2.15;;;8.20;99.90;;;;;;5075454;28;20207;-73
2023/12/31 03:27:54;;;;;;;7.22;2.00;;;8.20;99.90;;;;;;5072434;28;20678;-73
2023/12/31 03:30:21;;;;;;;3.55;1.55;;;8.20;99.90;;;;;;5063828;28;20241;-72
2023/12/31 03:32:49;;;;;;;4.22;2.03;;;8.20;99.90;;;;;;5067066;28;20200;-73
2023/12/31 03:35:16;;;;;;;6.35;1.73;;;8.20;99.90;;;;;;5064701;28;20215;-73
2023/12/31 03:37:46;;;;;;;5.32;1.67;;;8.30;99.90;;;;;;5075956;28;20689;-71
2023/12/31 03:40:14;;;;;;;7.57;2.63;;;8.30;99.90;;;;;;5061242;28;20204;-71
2023/12/31 03:42:41;;;;;;;5.38;1.85;;;8.30;99.90;;;;;;5067363;28;20776;-72
2023/12/31 03:45:08;;;;;;;5.53;2.03;;;8.20;99.90;;;;;;5067760;28;20736;-71
2023/12/31 03:47:35;;;;;;;6.22;1.73;;;8.20;99.90;;;;;;5069654;28;20301;-71
2023/12/31 03:50:04;;;;;;;4.70;2.55;;;8.30;99.90;;;;;;5067737;28;20246;-72
2023/12/31 03:52:32;;;;;;;3.03;2.05;;;8.20;99.90;;;;;;5074381;28;20239;-73
2023/12/31 03:54:59;;;;;;;4.03;2.10;;;8.20;99.90;;;;;;5062953;28;20215;-71
2023/12/31 03:57:26;;;;;;;4.93;2.85;;;8.20;99.90;;;;;;5068239;28;20238;-70
2023/12/31 03:59:53;;;;;;;7.05;2.65;;;8.20;99.90;;;;;;5078494;28;20289;-71
2023/12/31 04:02:20;;;;;;;4.68;3.00;;;8.20;99.90;;;;;;5073232;28;20204;-72
2023/12/31 04:04:48;;;;;;;4.22;1.90;;;8.30;99.90;;;;;;5072992;28;20602;-71
2023/12/31 04:07:16;;;;;;;2.72;2.08;;;8.30;99.90;;;;;;5067323;28;20255;-72
2023/12/31 04:09:43;;;;;;;9.30;3.28;;;8.30;99.90;;;;;;5065243;28;20242;-72
2023/12/31 04:12:16;;;;;;;6.25;2.83;;;8.40;99.90;;;;;;5074486;22;20216;-82
2023/12/31 04:14:45;;;;;;;7.45;1.98;;;8.40;99.90;;;;;;5069573;28;20272;-82
2023/12/31 04:17:40;;;;;;;10.23;5.15;;;8.40;99.90;;;;;;5061790;28;20345;-83
2023/12/31 04:20:22;;;;;;;9.00;3.65;;;8.40;99.90;;;;;;5068991;28;20292;-83
2023/12/31 04:23:02;;;;;;;9.20;3.65;;;8.20;99.90;;;;;;5058815;28;20223;-83
2023/12/31 04:25:56;;;;;;;14.05;5.80;;;8.30;99.90;;;;;;5061115;28;20203;-83
2023/12/31 04:28:33;;;;;;;17.63;10.30;;;8.30;99.90;;;;;;5039756;28;20195;-83
2023/12/31 04:31:03;;;;;;;6.45;3.85;;;8.30;99.90;;;;;;5056248;28;20228;-83
2023/12/31 04:33:35;;;;;;;10.13;4.78;;;8.30;99.90;;;;;;5058393;28;20209;-83
2023/12/31 04:36:11;;;;;;;12.18;5.35;;;8.40;99.90;;;;;;5046661;28;20202;-84
2023/12/31 04:39:02;;;;;;;8.60;5.63;;;8.40;99.90;;;;;;5044104;28;20189;-83
2023/12/31 04:41:43;;;;;;;9.65;5.88;;;8.50;99.90;;;;;;5051538;28;20233;-84
2023/12/31 04:50:39;;;;;;;5.25;2.97;;;8.30;99.90;;;;;;5024422;28;20197;-83
2023/12/31 04:53:07;;;;;;;3.95;3.05;;;8.30;99.90;;;;;;5036144;28;20201;-82
2023/12/31 04:56:20;;;;;;;5.60;3.20;;;8.30;99.90;;;;;;5042299;28;20239;-83
2023/12/31 04:59:31;;;;;;;2.63;2.40;;;8.30;99.90;;;;;;5050137;28;20213;-83
2023/12/31 05:05:06;;;;;;;6.13;2.60;;;8.20;99.90;;;;;;5047372;28;20197;-84
2023/12/31 05:07:47;;;;;;;6.22;2.65;;;8.10;99.90;;;;;;5049315;28;20208;-83
2023/12/31 05:29:51;;;;;;;4.28;2.17;;;7.90;99.90;;;;;;5049661;28;20208;-84
2023/12/31 05:32:41;;;;;;;5.60;2.03;;;8.00;99.90;;;;;;5047514;28;20283;-83
2023/12/31 05:48:40;;;;;;;3.45;2.03;;;7.90;99.90;;;;;;5047555;28;20235;-84
2023/12/31 05:51:52;;;;;;;2.72;2.08;;;7.90;99.90;;;;;;5044912;28;20296;-84
2023/12/31 05:54:26;;;;;;;3.33;1.85;;;7.90;99.90;;;;;;5043002;28;20229;-84
2023/12/31 05:57:04;;;;;;;4.65;2.92;;;7.90;99.90;;;;;;5043087;28;20672;-83
2023/12/31 05:59:35;;;;;;;7.78;3.00;;;7.90;99.90;;;;;;5050104;28;20195;-83
2023/12/31 06:04:49;;;;;;;6.38;2.90;;;7.90;99.90;;;;;;5049956;28;20213;-83
2023/12/31 06:07:25;;;;;;;3.35;2.10;;;7.90;99.90;;;;;;5056216;28;20260;-82
2023/12/31 06:09:56;;;;;;;5.05;2.88;;;7.90;99.90;;;;;;5049275;28;20193;-83
2023/12/31 06:12:28;;;;;;;3.17;2.60;;;7.90;99.90;;;;;;5055343;28;20224;-82
2023/12/31 06:14:55;;;;;;;4.65;2.53;;;8.10;99.90;;;;;;5057097;28;20228;-81
2023/12/31 06:17:23;;;;;;;2.97;2.35;;;8.00;99.90;;;;;;5056576;28;20201;-82
2023/12/31 06:19:54;;;;;;;5.75;2.85;;;8.00;99.90;;;;;;5053259;28;20220;-83
2023/12/31 06:22:21;;;;;;;3.05;2.00;;;8.00;99.90;;;;;;5045202;28;20228;-83
2023/12/31 06:24:49;;;;;;;3.67;2.67;;;7.90;99.90;;;;;;5047672;28;20200;-85
2023/12/31 06:27:25;;;;;;;3.15;2.53;;;7.90;99.90;;;;;;5044470;28;20205;-83
2023/12/31 06:29:53;;;;;;;4.80;2.75;;;8.00;99.90;;;;;;5054130;28;20197;-83
2023/12/31 06:32:29;;;;;;;4.70;2.10;;;7.90;99.90;;;;;;5056699;28;20225;-82
2023/12/31 06:34:56;;;;;;;3.78;2.55;;;8.00;99.90;;;;;;5048801;28;20231;-82
2023/12/31 06:37:24;;;;;;;4.15;2.67;;;7.90;99.90;;;;;;5047468;28;20193;-83
2023/12/31 06:39:52;;;;;;;3.85;2.35;;;7.90;99.90;;;;;;5047363;28;20212;-83
2023/12/31 06:42:24;;;;;;;6.00;3.40;;;7.90;99.90;;;;;;5047408;28;20235;-83
2023/12/31 06:44:54;;;;;;;5.07;2.78;;;8.00;99.90;;;;;;5043110;28;20227;-83
2023/12/31 06:47:23;;;;;;;4.75;3.15;;;8.00;99.90;;;;;;5049409;28;20247;-83
2023/12/31 06:49:52;;;;;;;4.88;3.40;;;8.00;99.90;;;;;;5047431;28;20205;-84
2023/12/31 06:52:23;;;;;;;3.50;2.05;;;8.00;99.90;;;;;;5054157;28;20213;-82
2023/12/31 06:54:54;;;;;;;3.40;2.80;;;8.00;99.90;;;;;;5054916;28;20220;-82
2023/12/31 06:57:25;;;;;;;5.57;3.10;;;8.00;99.90;;;;;;5051965;28;20196;-83
2023/12/31 06:59:52;;;;;;;5.10;3.33;;;8.00;99.90;;;;;;5054118;28;20201;-83
2023/12/31 07:02:21;;;;;;;4.68;3.13;;;8.00;99.90;;;;;;5053570;28;20223;-83
2023/12/31 07:05:08;;;;;;;5.07;3.67;;;8.10;99.90;;;;;;5040579;28;20205;-83
2023/12/31 07:07:36;;;;;;;3.78;3.33;;;8.10;99.90;;;;;;5045682;28;20208;-83
2023/12/31 07:10:04;;;;;;;4.82;3.40;;;8.10;99.90;;;;;;5050764;28;20192;-83
2023/12/31 07:12:37;;;;;;;4.40;3.20;;;7.90;99.90;;;;;;5050583;28;20255;-84
2023/12/31 07:15:07;;;;;;;8.45;3.58;;;8.00;99.90;;;;;;5053184;28;20212;-82
2023/12/31 07:17:41;;;;;;;4.53;3.00;;;8.10;99.90;;;;;;5045774;28;20200;-84
2023/12/31 07:20:12;;;;;;;4.07;3.42;;;8.10;99.90;;;;;;5048383;28;20201;-82
2023/12/31 07:22:43;;;;;;;7.03;4.60;;;8.20;99.90;;;;;;5049947;28;20228;-84
2023/12/31 07:25:11;;;;;;;4.68;3.38;;;8.10;99.90;;;;;;5039575;28;20205;-83
2023/12/31 07:27:46;;;;;;;3.75;2.95;;;8.10;99.90;;;;;;5042227;28;20231;-82
2023/12/31 07:30:15;;;;;;;4.45;4.05;;;8.00;99.90;;;;;;5050747;28;20204;-83
2023/12/31 07:32:43;;;;;;;9.43;4.60;;;8.10;99.90;;;;;;5047280;28;20243;-83
2023/12/31 07:35:16;;;;;;;6.70;3.20;;;8.10;99.90;;;;;;5053767;28;20252;-82
2023/12/31 07:37:49;;;;;;;4.47;3.35;;;8.10;99.90;;;;;;5052848;28;20219;-82
2023/12/31 07:40:23;;;;;;;5.72;3.20;;;8.30;99.90;;;;;;5048599;28;20193;-83
2023/12/31 07:42:53;;;;;;;5.88;3.00;;;8.20;99.90;;;;;;5044953;28;20204;-82
2023/12/31 07:45:24;;;;;;;6.65;3.60;;;8.20;99.90;;;;;;5048333;28;20197;-82
2023/12/31 07:47:53;;;;;;;4.22;3.25;;;8.30;99.90;;;;;;5038751;28;20197;-82
2023/12/31 07:50:21;;;;;;;4.78;3.78;;;8.30;99.90;;;;;;5045705;28;20200;-83
2023/12/31 07:52:48;;;;;;;3.53;3.20;;;8.30;99.90;;;;;;5048291;28;20209;-82
2023/12/31 07:55:19;;;;;;;6.00;3.60;;;8.30;99.90;;;;;;5047380;28;20224;-83
2023/12/31 07:57:49;;;;;;;5.25;3.00;;;8.40;99.90;;;;;;5043621;28;20664;-83
2023/12/31 08:00:24;;;;;;;4.07;3.03;;;8.40;99.90;;;;;;5042613;28;20204;-83
2023/12/31 08:02:54;;;;;;;4.70;2.90;;;8.40;99.90;;;;;;5057157;28;20200;-83
2023/12/31 08:05:22;;;;;;;4.57;3.13;;;8.40;99.90;;;;;;5058830;28;20260;-83
2023/12/31 08:07:52;;;;;;;5.45;2.80;;;8.40;99.90;;;;;;5054664;28;20679;-84
2023/12/31 08:10:29;;;;;;;4.28;2.60;;;8.40;99.90;;;;;;5041262;28;20220;-82
2023/12/31 08:12:59;;;;;;;7.72;2.85;;;8.50;99.90;;;;;;5050799;28;20215;-83
2023/12/31 08:15:37;;;;;;;2.35;1.88;;;8.50;99.90;;;;;;5055366;28;20228;-83
2023/12/31 08:18:16;;;;;;;4.60;2.50;;;8.50;99.90;;;;;;5059296;28;20185;-82
2023/12/31 08:20:51;;;;;;;5.45;2.58;;;8.50;99.90;;;;;;5057785;28;20296;-83
2023/12/31 08:23:22;;;;;;;5.95;2.97;;;8.50;99.90;;;;;;5055179;28;20200;-83
2023/12/31 08:25:54;;;;;;;4.43;2.65;;;8.60;99.90;;;;;;5059054;28;20213;-83
2023/12/31 08:28:24;;;;;;;2.15;1.95;;;8.60;99.90;;;;;;5052795;28;20185;-82
2023/12/31 08:31:00;;;;;;;3.47;2.40;;;8.80;99.90;;;;;;5058309;28;20268;-83
2023/12/31 08:33:40;;;;;;;3.40;2.67;;;8.70;99.90;;;;;;5053230;28;20235;-82
2023/12/31 08:36:18;;;;;;;3.72;2.13;;;8.70;99.90;;;;;;5051092;28;20227;-83
2023/12/31 08:38:53;;;;;;;2.75;2.53;;;8.80;99.90;;;;;;5045501;28;20706;-82
2023/12/31 08:41:32;;;;;;;2.55;2.05;;;8.70;99.90;;;;;;5045373;28;20307;-82
2023/12/31 08:44:01;;;;;;;2.55;2.03;;;8.80;99.90;;;;;;5047334;28;20272;-84
2023/12/31 08:46:39;;;;;;;3.85;2.65;;;8.80;99.90;;;;;;5040226;28;20235;-82
2023/12/31 08:49:29;;;;;;;4.30;2.33;;;8.80;99.90;;;;;;5047524;28;20263;-83
2023/12/31 08:54:50;;;;;;;5.35;2.25;;;8.90;99.90;;;;;;5046994;28;20208;-84
2023/12/31 08:57:35;;;;;;;3.28;2.20;;;8.80;99.90;;;;;;5042869;28;20201;-82
2023/12/31 09:00:12;;;;;;;2.25;2.00;;;8.80;99.90;;;;;;5023522;28;20205;-84
2023/12/31 09:02:48;;;;;;;3.40;2.15;;;8.80;99.90;;;;;;5022965;28;20859;-83
2023/12/31 09:05:18;;;;;;;3.25;2.53;;;8.80;99.90;;;;;;5029743;28;20200;-82
2023/12/31 09:07:51;;;;;;;2.95;1.98;;;8.80;99.90;;;;;;5030486;28;20190;-83
2023/12/31 09:10:23;;;;;;;4.85;2.70;;;8.90;99.90;;;;;;5029478;28;20205;-84
2023/12/31 09:13:03;;;;;;;5.20;2.03;;;8.80;99.90;;;;;;5022942;28;20214;-83
2023/12/31 09:15:47;;;;;;;;;;;;;;;;;;;;;
2023/12/31 09:18:21;;;;;;;3.35;2.10;;;8.80;99.90;;;;;;5026543;28;20220;-82
2023/12/31 09:20:53;;;;;;;4.80;1.90;;;8.90;99.90;;;;;;5027315;28;20247;-84
2023/12/31 09:23:37;;;;;;;3.40;1.80;;;8.90;99.90;;;;;;5022650;28;20222;-83
2023/12/31 09:26:10;;;;;;;4.60;2.00;;;9.00;99.90;;;;;;5027057;28;20284;-83
2023/12/31 09:28:42;;;;;;;3.13;2.20;;;9.00;99.90;;;;;;5028171;28;20240;-83
2023/12/31 09:31:25;;;;;;;3.50;1.83;;;9.10;99.90;;;;;;5025710;28;20225;-86
2023/12/31 09:33:59;;;;;;;2.17;1.98;;;9.00;99.90;;;;;;5031581;28;20201;-84
2023/12/31 09:36:45;;;;;;;3.97;1.67;;;9.00;99.90;;;;;;5029364;28;20227;-82
2023/12/31 09:39:20;;;;;;;2.35;1.98;;;9.00;99.90;;;;;;5027113;28;20201;-83
2023/12/31 09:42:03;;;;;;;2.75;2.05;;;9.20;99.90;;;;;;5027916;28;20220;-83
2023/12/31 09:44:40;;;;;;;3.38;1.70;;;9.20;99.90;;;;;;5031215;28;20205;-83
2023/12/31 09:47:44;;;;;;;3.47;1.80;;;9.20;99.90;;;;;;5022938;28;20201;-84
2023/12/31 09:50:18;;;;;;;3.15;1.73;;;9.30;99.90;;;;;;5026396;28;20200;-83
2023/12/31 09:52:51;;;;;;;4.60;2.30;;;9.30;99.90;;;;;;5026246;28;20225;-83
2023/12/31 09:55:31;;;;;;;2.13;1.80;;;9.40;99.90;;;;;;5029073;28;20239;-82
2023/12/31 09:58:13;;;;;;;2.00;1.50;;;9.40;99.90;;;;;;5026623;28;20209;-82
2023/12/31 10:00:43;;;;;;;3.72;1.70;;;9.40;99.90;;;;;;5027831;28;20708;-83
2023/12/31 10:03:14;;;;;;;2.28;2.00;;;9.50;99.90;;;;;;5031646;28;20216;-84
2023/12/31 10:05:51;;;;;;;1.70;1.55;;;9.60;99.90;;;;;;5031394;28;20205;-83
2023/12/31 10:08:25;;;;;;;4.65;2.20;;;9.60;99.90;;;;;;5031713;28;20212;-84
2023/12/31 10:11:03;;;;;;;5.15;2.15;;;9.60;99.90;;;;;;5021391;28;20610;-84
2023/12/31 10:13:45;;;;;;;3.00;2.08;;;9.70;99.90;;;;;;5028283;28;20707;-83
2023/12/31 10:16:14;;;;;;;2.95;1.63;;;9.70;99.90;;;;;;5028191;28;20659;-83
2023/12/31 10:18:47;;;;;;;3.88;2.10;;;9.70;99.90;;;;;;5025445;28;20269;-83
2023/12/31 10:21:22;;;;;;;6.03;2.00;;;9.70;99.90;;;;;;5026374;28;20232;-82
2023/12/31 10:23:54;;;;;;;3.53;2.70;;;9.70;99.90;;;;;;5033885;28;20211;-82
2023/12/31 10:26:29;;;;;;;5.10;2.25;;;9.80;99.90;;;;;;5022864;28;20210;-82
2023/12/31 10:29:00;;;;;;;2.60;2.00;;;9.90;99.90;;;;;;5029312;28;20201;-83
2023/12/31 10:31:36;;;;;;;2.03;1.88;;;9.90;99.90;;;;;;5027116;28;20237;-83
2023/12/31 10:34:24;;;;;;;3.03;1.90;;;10.00;99.90;;;;;;5028992;28;20269;-84
2023/12/31 10:37:07;;;;;;;2.88;1.77;;;10.10;99.90;;;;;;5028901;28;20747;-84
2023/12/31 10:39:38;;;;;;;4.00;2.10;;;10.10;99.90;;;;;;5026052;28;20209;-83
2023/12/31 10:42:11;;;;;;;2.55;1.60;;;10.20;99.90;;;;;;5029572;28;20229;-82
2023/12/31 10:44:53;;;;;;;4.07;1.92;;;10.30;99.90;;;;;;5027595;28;20206;-83
2023/12/31 10:47:25;;;;;;;2.60;2.30;;;10.40;99.90;;;;;;5024997;28;20707;-82
2023/12/31 10:49:57;;;;;;;2.60;2.10;;;10.40;99.90;;;;;;5029414;28;20201;-83
2023/12/31 10:52:33;;;;;;;2.03;1.75;;;10.40;99.90;;;;;;5026931;28;20252;-83
2023/12/31 10:55:17;;;;;;;6.00;1.90;;;10.80;99.90;;;;;;5026329;28;20205;-85
2023/12/31 10:57:45;;;;;;;4.22;2.13;;;11.10;99.90;;;;;;5031236;28;20209;-82
2023/12/31 11:00:15;;;;;;;1.70;1.58;;;11.10;99.90;;;;;;5023917;28;20249;-83
2023/12/31 11:02:46;;;;;;;2.25;1.50;;;11.00;99.90;;;;;;5030919;28;20217;-82
2023/12/31 11:05:17;;;;;;;4.05;2.42;;;11.10;99.90;;;;;;5032434;28;20205;-83
2023/12/31 11:10:39;;;;;;;2.30;1.60;;;11.20;99.90;;;;;;5026324;28;20223;-84
2023/12/31 11:13:18;;;;;;;3.92;2.15;;;11.10;99.90;;;;;;5031519;28;20236;-83
2023/12/31 11:15:52;;;;;;;2.70;1.95;;;11.10;99.90;;;;;;5028265;28;20209;-83
2023/12/31 11:18:50;;;;;;;2.30;1.50;;;11.00;99.90;;;;;;5023899;28;20225;-82
2023/12/31 11:21:59;;;;;;;3.70;2.10;;;10.90;99.90;;;;;;5034329;28;20209;-83
2023/12/31 11:25:10;;;;;;;2.03;1.85;;;10.90;99.90;;;;;;5033312;28;20186;-84
2023/12/31 11:27:47;;;;;;;2.55;1.67;;;10.80;99.90;;;;;;5035956;28;20204;-82
2023/12/31 11:30:18;;;;;;;1.73;1.40;;;10.80;99.90;;;;;;5024083;28;20206;-84
2023/12/31 11:32:51;;;;;;;3.67;1.75;;;10.70;99.90;;;;;;5035933;28;20209;-83
2023/12/31 11:35:43;;;;;;;2.75;2.20;;;10.70;99.90;;;;;;5035944;28;20201;-83
2023/12/31 11:38:12;;;;;;;3.20;2.20;;;10.80;99.90;;;;;;5035243;28;20277;-83
2023/12/31 11:40:50;;;;;;;3.05;2.30;;;10.80;99.90;;;;;;5037701;28;20190;-83
2023/12/31 11:43:39;;;;;;;2.00;1.48;;;10.90;99.90;;;;;;5026147;28;20284;-82
2023/12/31 11:46:07;;;;;;;2.65;1.92;;;10.90;99.90;;;;;;5032060;28;20213;-83
2023/12/31 11:48:45;;;;;;;3.10;2.25;;;10.90;99.90;;;;;;5029341;28;20213;-83
2023/12/31 11:51:23;;;;;;;1.55;1.38;;;10.90;99.90;;;;;;5037713;28;20293;-82
2023/12/31 11:53:53;;;;;;;2.25;1.70;;;10.90;99.90;;;;;;5038738;28;20240;-83
2023/12/31 11:56:29;;;;;;;3.15;1.92;;;10.90;99.90;;;;;;5038117;28;20252;-82
2023/12/31 11:59:00;;;;;;;2.60;1.98;;;11.00;99.90;;;;;;5028937;28;20205;-84
2023/12/31 12:01:32;;;;;;;3.80;2.03;;;10.80;99.90;;;;;;5036504;28;20256;-83
2023/12/31 12:04:01;;;;;;;4.15;2.35;;;10.90;99.90;;;;;;5030751;28;20185;-84
2023/12/31 12:06:46;;;;;;;4.03;2.20;;;10.90;99.90;;;;;;5038666;28;20194;-84
2023/12/31 12:09:21;;;;;;;3.97;2.85;;;11.00;99.90;;;;;;5033291;28;20186;-83
2023/12/31 12:11:50;;;;;;;3.45;2.55;;;11.00;99.90;;;;;;5038083;28;20227;-83
2023/12/31 12:14:21;;;;;;;5.30;2.50;;;11.10;99.90;;;;;;5037645;28;20198;-82
2023/12/31 12:16:53;;;;;;;3.60;2.40;;;11.10;99.90;;;;;;5038168;28;20256;-83
2023/12/31 12:19:25;;;;;;;2.75;2.22;;;11.10;99.90;;;;;;5037897;28;20205;-82
2023/12/31 12:22:09;;;;;;;4.05;2.50;;;11.00;99.90;;;;;;5038146;28;20221;-83
2023/12/31 12:24:47;;;;;;;3.30;2.70;;;11.10;99.90;;;;;;5035507;28;20213;-82
2023/12/31 12:27:21;;;;;;;4.68;3.75;;;11.10;99.90;;;;;;5029302;28;20650;-83
2023/12/31 12:29:58;;;;;;;3.33;2.10;;;11.10;99.90;;;;;;5030712;28;20216;-85
2023/12/31 12:32:48;;;;;;;5.00;2.50;;;11.10;99.90;;;;;;5025040;28;20238;-84
2023/12/31 12:35:21;;;;;;;3.15;2.80;;;11.10;99.90;;;;;;5029618;28;20209;-82
2023/12/31 12:38:10;;;;;;;2.35;2.10;;;11.20;99.90;;;;;;5028246;28;20232;-83
2023/12/31 12:40:42;;;;;;;3.30;2.40;;;11.30;99.90;;;;;;5025502;28;20206;-83
2023/12/31 12:43:20;;;;;;;2.90;2.60;;;11.20;99.90;;;;;;5032473;28;20197;-83
2023/12/31 12:46:11;;;;;;;5.65;2.38;;;11.20;99.90;;;;;;5037408;28;20193;-82
2023/12/31 12:48:48;;;;;;;4.53;2.85;;;11.40;99.90;;;;;;5030114;28;20221;-84
2023/12/31 12:51:25;;;;;;;3.60;2.55;;;11.40;99.90;;;;;;5027516;28;20252;-84
2023/12/31 12:53:54;;;;;;;4.40;2.42;;;11.40;99.90;;;;;;5024657;28;20236;-84
2023/12/31 12:56:24;;;;;;;4.57;2.50;;;11.50;99.90;;;;;;5029650;28;20255;-84
2023/12/31 12:58:59;;;;;;;4.45;2.88;;;11.50;99.90;;;;;;5031984;28;20211;-84
2023/12/31 13:01:33;;;;;;;3.75;2.30;;;11.50;99.90;;;;;;5026994;28;20236;-84
2023/12/31 13:06:57;;;;;;;6.25;3.40;;;11.70;99.90;;;;;;5029447;28;20265;-83
2023/12/31 13:09:36;;;;;;;4.95;2.92;;;11.50;99.90;;;;;;5028131;28;20205;-83
2023/12/31 13:12:17;;;;;;;3.97;2.47;;;11.60;99.90;;;;;;5027719;28;20225;-84
2023/12/31 13:14:56;;;;;;;3.83;3.10;;;11.50;99.90;;;;;;5025967;28;20210;-83
2023/12/31 13:17:35;;;;;;;4.10;2.80;;;11.50;99.90;;;;;;5030576;28;20225;-83
2023/12/31 13:20:13;;;;;;;4.78;3.05;;;11.50;99.90;;;;;;5025505;28;20216;-83
2023/12/31 13:22:46;;;;;;;4.85;2.97;;;11.40;99.90;;;;;;5029016;28;20240;-83
2023/12/31 13:25:14;;;;;;;3.03;2.65;;;11.40;99.90;;;;;;5027944;28;20193;-83
2023/12/31 13:27:49;;;;;;;5.25;3.15;;;11.40;99.90;;;;;;5028549;28;20248;-84
2023/12/31 13:30:21;;;;;;;3.70;3.25;;;11.20;99.90;;;;;;5029221;28;20232;-84
2023/12/31 13:32:52;;;;;;;3.50;3.10;;;11.30;99.90;;;;;;5029554;28;20213;-83
2023/12/31 13:35:30;;;;;;;3.80;3.20;;;11.30;99.90;;;;;;5026695;28;20209;-83
2023/12/31 13:38:06;;;;;;;5.60;3.90;;;11.30;99.90;;;;;;5028608;28;20217;-83
2023/12/31 13:40:33;;;;;;;7.10;5.22;;;11.30;99.90;;;;;;5028135;28;20205;-84
2023/12/31 13:43:16;;;;;;;5.13;3.30;;;11.30;99.90;;;;;;5028244;28;20209;-83
2023/12/31 13:46:04;;;;;;;4.45;3.95;;;11.30;99.90;;;;;;5017007;28;20210;-84
2023/12/31 13:48:41;;;;;;;4.38;2.90;;;11.40;99.90;;;;;;5020459;28;20194;-84
2023/12/31 13:51:14;;;;;;;4.60;4.00;;;11.30;99.90;;;;;;5027211;28;20279;-85
2023/12/31 13:53:49;;;;;;;3.92;3.53;;;11.30;99.90;;;;;;5027587;28;20216;-83
2023/12/31 13:56:20;;;;;;;5.50;3.78;;;11.30;99.90;;;;;;5029661;28;20199;-83
2023/12/31 13:58:54;;;;;;;4.10;3.60;;;11.30;99.90;;;;;;5032755;28;20232;-84
2023/12/31 14:01:30;;;;;;;4.38;3.03;;;11.50;99.90;;;;;;5030721;28;20320;-83
2023/12/31 14:04:06;;;;;;;5.97;3.60;;;11.30;99.90;;;;;;5024151;28;20208;-85
2023/12/31 14:06:42;;;;;;;3.65;3.33;;;11.30;99.90;;;;;;5021344;28;20201;-83
2023/12/31 14:09:24;;;;;;;7.03;3.53;;;11.30;99.90;;;;;;5026255;28;20277;-84
2023/12/31 14:11:54;;;;;;;5.35;3.30;;;11.30;99.90;;;;;;5025976;28;20237;-84
2023/12/31 14:14:29;;;;;;;4.43;3.53;;;11.30;99.90;;;;;;5029345;28;20205;-84
2023/12/31 14:17:00;;;;;;;3.45;3.15;;;11.20;99.90;;;;;;5022963;28;20221;-83
2023/12/31 14:19:44;;;;;;;4.47;3.60;;;11.30;99.90;;;;;;5027799;28;20213;-82
2023/12/31 14:22:16;;;;;;;4.07;3.25;;;11.30;99.90;;;;;;5028557;28;20311;-82
2023/12/31 14:24:51;;;;;;;5.22;3.55;;;11.10;99.90;;;;;;5024776;28;20206;-82